createdAt,value
2022-09-15T00:00:27.286Z,90.82
2022-09-15T00:02:54.053Z,91.45
2022-09-15T00:05:20.926Z,91.07
2022-09-15T00:07:47.670Z,91.07
2022-09-15T00:10:14.278Z,91.28
2022-09-15T00:12:40.868Z,91.26
2022-09-15T00:15:07.870Z,91.30
2022-09-15T00:17:34.607Z,91.42
2022-09-15T00:20:01.349Z,91.13
2022-09-15T00:22:28.163Z,91.73
2022-09-15T00:24:54.824Z,91.31
2022-09-15T00:27:21.446Z,91.55
2022-09-15T00:29:48.100Z,91.96
2022-09-15T00:32:14.937Z,91.57
2022-09-15T00:34:41.651Z,91.51
2022-09-15T00:37:08.417Z,91.50
2022-09-15T00:39:36.094Z,91.60
2022-09-15T00:42:03.851Z,91.64
2022-09-15T00:44:36.494Z,91.68
2022-09-15T00:47:18.669Z,91.73
2022-09-15T00:49:46.063Z,93.86
2022-09-15T00:52:17.718Z,92.40
2022-09-15T00:54:57.971Z,92.48
2022-09-15T00:57:28.719Z,91.90
2022-09-15T00:59:56.772Z,91.99
2022-09-15T01:02:32.883Z,91.46
2022-09-15T01:05:02.288Z,91.23
2022-09-15T01:07:33.666Z,90.81
2022-09-15T01:10:07.189Z,91.05
2022-09-15T01:12:34.064Z,91.20
2022-09-15T01:15:01.789Z,90.26
2022-09-15T01:17:55.578Z,90.93
2022-09-15T01:20:53.171Z,89.78
2022-09-15T01:23:58.593Z,91.09
2022-09-15T01:26:46.958Z,90.41
2022-09-15T01:29:47.213Z,90.44
2022-09-15T01:33:04.189Z,90.48
2022-09-15T01:35:42.521Z,89.37
2022-09-15T01:38:36.858Z,89.28
2022-09-15T01:41:18.756Z,89.00
2022-09-15T01:43:53.911Z,88.65
2022-09-15T01:46:23.007Z,89.22
2022-09-15T01:48:50.618Z,89.55
2022-09-15T01:51:17.862Z,89.46
2022-09-15T01:53:45.866Z,88.98
2022-09-15T01:56:12.932Z,88.69
2022-09-15T01:58:40.766Z,88.73
2022-09-15T02:01:17.290Z,89.54
2022-09-15T02:03:51.573Z,89.30
2022-09-15T02:06:37.642Z,89.54
2022-09-15T02:09:13.428Z,89.30
2022-09-15T02:12:10.730Z,89.49
2022-09-15T02:14:52.363Z,89.33
2022-09-15T02:17:21.128Z,88.17
2022-09-15T02:19:54.301Z,88.64
2022-09-15T02:22:27.725Z,88.82
2022-09-15T02:25:08.883Z,89.13
2022-09-15T02:27:38.829Z,89.34
2022-09-15T02:30:08.913Z,89.00
2022-09-15T02:32:37.184Z,89.65
2022-09-15T02:35:07.553Z,89.81
2022-09-15T02:37:35.523Z,89.39
2022-09-15T02:40:02.705Z,89.44
2022-09-15T02:42:31.626Z,89.43
2022-09-15T02:44:59.399Z,89.38
2022-09-15T02:47:28.116Z,89.21
2022-09-15T02:49:55.509Z,88.70
2022-09-15T02:52:22.141Z,88.61
2022-09-15T02:54:49.155Z,88.26
2022-09-15T02:57:16.413Z,88.37
2022-09-15T03:00:01.978Z,88.39
2022-09-15T03:02:28.841Z,88.44
2022-09-15T03:04:55.513Z,88.04
2022-09-15T03:07:22.164Z,87.89
2022-09-15T03:09:48.879Z,87.95
2022-09-15T03:12:15.943Z,88.34
2022-09-15T03:14:42.819Z,88.21
2022-09-15T03:17:11.513Z,87.97
2022-09-15T03:19:39.526Z,87.96
2022-09-15T03:22:06.834Z,87.75
2022-09-15T03:24:33.622Z,87.14
2022-09-15T03:27:00.356Z,87.44
2022-09-15T03:29:39.418Z,87.52
2022-09-15T03:32:06.876Z,87.73
2022-09-15T03:34:33.558Z,87.61
2022-09-15T03:37:00.146Z,87.42
2022-09-15T03:39:28.831Z,87.42
2022-09-15T03:41:57.616Z,87.54
2022-09-15T03:44:24.549Z,87.49
2022-09-15T03:46:51.373Z,87.61
2022-09-15T03:49:18.014Z,87.48
2022-09-15T03:51:44.844Z,87.25
2022-09-15T03:54:11.746Z,87.06
2022-09-15T03:56:38.464Z,87.13
2022-09-15T03:59:09.469Z,87.47
2022-09-15T04:01:36.148Z,87.69
2022-09-15T04:04:02.932Z,87.67
2022-09-15T04:06:29.568Z,87.77
2022-09-15T04:09:00.016Z,87.81
2022-09-15T04:11:26.777Z,87.91
2022-09-15T04:13:53.874Z,87.78
2022-09-15T04:16:24.547Z,87.82
2022-09-15T04:18:55.100Z,87.63
2022-09-15T04:21:24.260Z,87.77
2022-09-15T04:23:53.178Z,87.58
2022-09-15T04:26:32.934Z,87.39
2022-09-15T04:29:04.458Z,87.70
2022-09-15T04:31:35.784Z,87.88
2022-09-15T04:34:02.475Z,87.79
2022-09-15T04:36:31.265Z,87.59
2022-09-15T04:38:58.125Z,87.56
2022-09-15T04:41:26.316Z,87.50
2022-09-15T04:43:53.204Z,87.51
2022-09-15T04:46:20.138Z,87.70
2022-09-15T04:48:48.563Z,87.22
2022-09-15T04:51:18.537Z,87.39
2022-09-15T04:53:45.882Z,87.59
2022-09-15T04:56:15.071Z,87.73
2022-09-15T04:58:43.793Z,87.87
2022-09-15T05:01:15.695Z,87.58
2022-09-15T05:03:42.414Z,87.58
2022-09-15T05:06:11.486Z,87.70
2022-09-15T05:08:38.486Z,87.57
2022-09-15T05:11:07.098Z,87.76
2022-09-15T05:13:34.774Z,88.11
2022-09-15T05:16:06.144Z,88.01
2022-09-15T05:18:35.128Z,87.59
2022-09-15T05:21:02.720Z,87.86
2022-09-15T05:23:29.497Z,87.98
2022-09-15T05:26:03.281Z,88.24
2022-09-15T05:28:32.466Z,88.13
2022-09-15T05:30:59.117Z,88.50
2022-09-15T05:33:25.797Z,88.53
2022-09-15T05:35:57.419Z,88.52
2022-09-15T05:38:25.321Z,88.53
2022-09-15T05:40:52.246Z,88.85
2022-09-15T05:43:18.905Z,88.53
2022-09-15T05:45:53.990Z,88.62
2022-09-15T05:48:20.665Z,88.57
2022-09-15T05:50:49.938Z,89.04
2022-09-15T05:53:16.654Z,89.31
2022-09-15T05:55:43.322Z,88.96
2022-09-15T05:58:10.086Z,89.57
2022-09-15T06:00:36.900Z,89.41
2022-09-15T06:03:03.835Z,90.22
2022-09-15T06:05:30.618Z,90.09
2022-09-15T06:07:57.219Z,90.99
2022-09-15T06:10:24.943Z,91.03
2022-09-15T06:12:55.090Z,90.77
2022-09-15T06:15:22.723Z,90.49
2022-09-15T06:17:49.777Z,90.34
2022-09-15T06:20:16.615Z,90.38
2022-09-15T06:22:43.241Z,90.31
2022-09-15T06:25:10.483Z,90.63
2022-09-15T06:27:42.099Z,90.50
2022-09-15T06:34:52.182Z,91.21
2022-09-15T06:37:19.031Z,90.98
2022-09-15T06:39:45.666Z,90.27
2022-09-15T06:42:14.037Z,89.60
2022-09-15T06:44:41.540Z,89.50
2022-09-15T06:47:08.129Z,90.16
2022-09-15T06:49:34.747Z,90.78
2022-09-15T06:52:02.440Z,90.15
2022-09-15T06:54:29.044Z,89.31
2022-09-15T06:56:55.693Z,90.25
2022-09-15T06:59:24.469Z,90.36
2022-09-15T07:01:54.761Z,89.18
2022-09-15T07:04:22.010Z,89.59
2022-09-15T07:15:59.889Z,88.99
2022-09-15T07:24:29.838Z,87.31
2022-09-15T07:26:56.486Z,88.18
2022-09-15T07:29:23.112Z,86.88
2022-09-15T07:31:50.612Z,88.20
2022-09-15T07:34:17.330Z,87.28
2022-09-15T07:41:17.472Z,86.64
2022-09-15T07:43:48.682Z,84.68
2022-09-15T07:46:16.277Z,84.10
2022-09-15T07:48:51.323Z,83.01
2022-09-15T07:51:18.464Z,82.97
2022-09-15T07:53:46.788Z,82.83
2022-09-15T07:56:13.513Z,80.92
2022-09-15T07:58:40.094Z,82.35
2022-09-15T08:01:09.107Z,79.26
2022-09-15T08:03:35.810Z,78.09
2022-09-15T08:06:03.214Z,78.13
2022-09-15T08:08:30.371Z,76.91
2022-09-15T08:10:58.015Z,77.74
2022-09-15T08:13:24.926Z,76.98
2022-09-15T08:20:21.405Z,78.14
2022-09-15T08:22:48.859Z,77.41
2022-09-15T08:25:15.559Z,77.16
2022-09-15T08:27:42.201Z,76.83
2022-09-15T08:30:09.145Z,76.38
2022-09-15T08:32:35.802Z,75.48
2022-09-15T08:35:02.461Z,75.70
2022-09-15T08:37:29.058Z,75.61
2022-09-15T08:39:55.781Z,76.37
2022-09-15T08:42:24.070Z,75.75
2022-09-15T08:45:04.118Z,75.63
2022-09-15T08:47:41.190Z,76.08
2022-09-15T08:50:20.959Z,77.43
2022-09-15T08:57:20.030Z,76.13
2022-09-15T08:59:46.694Z,76.98
2022-09-15T09:02:13.191Z,78.31
2022-09-15T09:04:49.690Z,75.65
2022-09-15T09:11:59.380Z,76.70
2022-09-15T09:14:47.486Z,77.58
2022-09-15T09:17:39.194Z,79.07
2022-09-15T09:20:32.170Z,77.66
2022-09-15T09:23:01.582Z,76.50
2022-09-15T09:25:28.606Z,76.66
2022-09-15T09:27:58.079Z,75.42
2022-09-15T09:30:25.999Z,75.97
2022-09-15T09:33:18.288Z,75.76
2022-09-15T09:40:14.425Z,76.27
2022-09-15T09:42:41.830Z,76.25
2022-09-15T09:45:12.221Z,76.47
2022-09-15T09:47:39.303Z,76.70
2022-09-15T09:50:39.483Z,76.08
2022-09-15T09:53:20.315Z,75.42
2022-09-15T09:55:47.019Z,74.93
2022-09-15T09:58:18.653Z,75.05
2022-09-15T10:00:45.635Z,75.76
2022-09-15T10:03:22.115Z,75.21
2022-09-15T10:06:06.631Z,73.46
2022-09-15T10:08:33.689Z,74.33
2022-09-15T10:11:06.538Z,74.16
2022-09-15T10:13:36.279Z,74.17
2022-09-15T10:16:05.858Z,77.51
2022-09-15T10:18:38.050Z,78.20
2022-09-15T10:21:05.978Z,79.30
2022-09-15T10:23:34.132Z,79.78
2022-09-15T10:26:22.031Z,80.84
2022-09-15T10:29:23.192Z,80.10
2022-09-15T10:31:50.168Z,78.19
2022-09-15T10:34:36.273Z,79.12
2022-09-15T10:41:39.277Z,79.14
2022-09-15T10:44:37.561Z,77.94
2022-09-15T11:09:29.513Z,74.97
2022-09-15T11:12:04.486Z,73.44
2022-09-15T11:14:42.491Z,73.04
2022-09-15T11:17:16.481Z,73.30
2022-09-15T11:19:52.039Z,73.71
2022-09-15T11:22:42.122Z,73.42
2022-09-15T11:25:16.914Z,74.20
2022-09-15T11:27:49.359Z,71.58
2022-09-15T11:30:18.875Z,72.83
2022-09-15T11:32:52.961Z,72.59
2022-09-15T11:35:34.838Z,72.48
2022-09-15T11:38:52.848Z,71.06
2022-09-15T11:41:19.444Z,71.63
2022-09-15T11:43:55.467Z,71.44
2022-09-15T11:47:09.794Z,70.81
2022-09-15T11:49:50.442Z,69.75
2022-09-15T11:52:45.043Z,69.49
2022-09-15T11:55:35.943Z,70.39
2022-09-15T11:58:22.013Z,69.39
2022-09-15T12:00:58.921Z,69.25
2022-09-15T12:03:40.187Z,66.86
2022-09-15T12:06:11.522Z,66.82
2022-09-15T12:08:46.942Z,65.13
2022-09-15T12:11:19.042Z,65.10
2022-09-15T12:13:45.741Z,66.21
2022-09-15T12:16:12.627Z,66.20
2022-09-15T12:19:08.665Z,64.27
2022-09-15T12:21:46.117Z,65.33
2022-09-15T12:24:17.503Z,65.89
2022-09-15T12:26:46.565Z,65.51
2022-09-15T12:29:22.203Z,65.38
2022-09-15T12:31:48.811Z,65.74
2022-09-15T12:34:25.613Z,66.59
2022-09-15T12:37:06.663Z,67.59
2022-09-15T12:39:39.832Z,67.14
2022-09-15T12:42:14.080Z,67.31
2022-09-15T12:44:44.616Z,67.71
2022-09-15T12:47:31.702Z,68.03
2022-09-15T12:50:07.765Z,67.84
2022-09-15T12:52:55.709Z,67.56
2022-09-15T12:55:24.998Z,67.75
2022-09-15T12:57:54.145Z,67.48
2022-09-15T13:00:20.669Z,67.53
2022-09-15T13:02:48.946Z,66.84
2022-09-15T13:05:41.631Z,65.65
2022-09-15T13:08:24.445Z,64.65
2022-09-15T13:11:09.823Z,65.34
2022-09-15T13:13:47.458Z,65.60
2022-09-15T13:16:19.376Z,64.75
2022-09-15T13:18:47.210Z,64.48
2022-09-15T13:21:16.900Z,65.01
2022-09-15T13:23:47.975Z,64.42
2022-09-15T13:26:18.311Z,63.63
2022-09-15T13:28:47.749Z,63.64
2022-09-15T13:31:37.693Z,63.29
2022-09-15T13:38:06.822Z,63.03
2022-09-15T13:41:05.245Z,62.63
2022-09-15T13:44:11.122Z,62.48
2022-09-15T13:46:59.212Z,63.59
2022-09-15T13:49:44.893Z,65.52
2022-09-15T13:52:19.047Z,61.88
2022-09-15T13:55:26.253Z,61.93
2022-09-15T14:00:55.661Z,65.49
2022-09-15T14:03:47.505Z,65.48
2022-09-15T14:06:20.307Z,66.15
2022-09-15T14:08:47.942Z,67.25
2022-09-15T14:11:15.958Z,65.53
2022-09-15T14:13:46.737Z,63.32
2022-09-15T14:16:29.206Z,62.30
2022-09-15T14:18:58.292Z,62.48
2022-09-15T14:21:27.238Z,62.79
2022-09-15T14:23:56.116Z,63.97
2022-09-15T14:26:26.381Z,63.60
2022-09-15T14:28:56.534Z,64.19
2022-09-15T14:31:32.023Z,62.16
2022-09-15T14:33:59.097Z,62.50
2022-09-15T14:36:29.169Z,62.62
2022-09-15T14:39:08.772Z,60.28
2022-09-15T14:41:36.567Z,62.09
2022-09-15T14:47:20.714Z,62.92
2022-09-15T14:49:47.873Z,61.57
2022-09-15T14:52:27.147Z,60.99
2022-09-15T14:54:59.674Z,60.73
2022-09-15T14:57:30.862Z,62.21
2022-09-15T15:00:02.536Z,61.01
2022-09-15T15:02:48.573Z,62.03
2022-09-15T15:05:19.752Z,64.60
2022-09-15T15:07:46.406Z,64.98
2022-09-15T15:10:24.303Z,64.79
2022-09-15T15:12:59.139Z,64.91
2022-09-15T15:15:27.141Z,65.94
2022-09-15T15:17:54.598Z,65.79
2022-09-15T15:20:30.443Z,66.84
2022-09-15T15:23:20.550Z,68.09
2022-09-15T15:25:47.177Z,66.49
2022-09-15T15:28:36.951Z,66.40
2022-09-15T15:31:06.370Z,65.88
2022-09-15T15:33:33.459Z,65.32
2022-09-15T15:36:07.229Z,64.76
2022-09-15T15:38:47.510Z,66.18
2022-09-15T15:41:20.186Z,69.43
2022-09-15T15:44:03.413Z,66.04
2022-09-15T15:46:49.016Z,69.14
2022-09-15T15:49:16.152Z,66.91
2022-09-15T15:51:42.966Z,68.60
2022-09-15T15:54:09.744Z,69.57
2022-09-15T15:56:37.993Z,69.93
2022-09-15T15:59:05.806Z,70.12
2022-09-15T16:01:33.166Z,70.14
2022-09-15T16:03:59.894Z,70.97
2022-09-15T16:06:26.566Z,70.45
2022-09-15T16:08:53.595Z,68.97
2022-09-15T16:11:21.264Z,69.68
2022-09-15T16:13:48.269Z,70.44
2022-09-15T16:16:23.731Z,71.07
2022-09-15T16:18:50.747Z,70.41
2022-09-15T16:21:21.326Z,70.94
2022-09-15T16:23:49.009Z,70.92
2022-09-15T16:26:18.641Z,70.87
2022-09-15T16:28:45.503Z,71.50
2022-09-15T16:31:13.726Z,71.53
2022-09-15T16:33:42.092Z,71.32
2022-09-15T16:36:12.313Z,71.40
2022-09-15T16:38:44.197Z,71.13
2022-09-15T16:41:25.681Z,71.43
2022-09-15T16:43:58.330Z,71.16
2022-09-15T16:46:28.838Z,71.28
2022-09-15T16:48:55.693Z,71.33
2022-09-15T16:51:28.789Z,70.91
2022-09-15T16:53:57.885Z,70.36
2022-09-15T16:56:24.673Z,70.01
2022-09-15T16:58:58.759Z,70.42
2022-09-15T17:01:26.703Z,70.31
2022-09-15T17:03:53.471Z,69.95
2022-09-15T17:06:21.876Z,70.04
2022-09-15T17:08:48.596Z,69.67
2022-09-15T17:11:19.409Z,69.30
2022-09-15T17:13:46.674Z,69.60
2022-09-15T17:16:14.840Z,69.45
2022-09-15T17:18:41.585Z,70.03
2022-09-15T17:21:12.494Z,69.82
2022-09-15T17:23:40.939Z,69.63
2022-09-15T17:26:15.970Z,69.18
2022-09-15T17:33:33.413Z,69.24
2022-09-15T17:36:01.234Z,69.28
2022-09-15T17:38:28.861Z,69.48
2022-09-15T17:40:57.453Z,69.65
2022-09-15T17:43:28.847Z,69.70
2022-09-15T17:45:55.818Z,69.92
2022-09-15T17:48:22.690Z,69.98
2022-09-15T17:50:49.575Z,70.59
2022-09-15T17:53:22.684Z,70.27
2022-09-15T17:55:50.732Z,70.14
2022-09-15T17:58:18.226Z,70.69
2022-09-15T18:00:45.817Z,70.63
2022-09-15T18:03:18.983Z,71.06
2022-09-15T18:05:45.819Z,71.37
2022-09-15T18:08:12.850Z,71.23
2022-09-15T18:10:39.757Z,71.29
2022-09-15T18:13:06.986Z,70.93
2022-09-15T18:15:34.934Z,70.77
2022-09-15T18:18:04.181Z,71.17
2022-09-15T18:20:32.710Z,70.99
2022-09-15T18:27:32.481Z,70.41
2022-09-15T18:29:59.217Z,70.56
2022-09-15T18:32:26.237Z,70.65
2022-09-15T18:34:53.857Z,70.31
2022-09-15T18:37:20.725Z,70.19
2022-09-15T18:39:47.448Z,70.80
2022-09-15T18:42:14.147Z,70.70
2022-09-15T18:44:40.760Z,71.00
2022-09-15T18:47:07.382Z,70.44
2022-09-15T18:49:34.953Z,70.16
2022-09-15T18:52:02.913Z,69.98
2022-09-15T18:54:29.681Z,70.43
2022-09-15T18:56:56.493Z,71.07
2022-09-15T19:03:29.700Z,71.56
2022-09-15T19:05:56.559Z,71.62
2022-09-15T19:08:23.280Z,71.77
2022-09-15T19:11:45.403Z,71.91
2022-09-15T19:14:11.994Z,72.40
2022-09-15T19:16:56.351Z,72.79
2022-09-15T19:19:24.098Z,72.17
2022-09-15T19:21:50.792Z,72.24
2022-09-15T19:24:17.409Z,72.40
2022-09-15T19:26:46.628Z,72.74
2022-09-15T19:29:13.944Z,72.38
2022-09-15T19:31:42.170Z,72.38
2022-09-15T19:34:37.063Z,73.26
2022-09-15T19:37:08.039Z,73.36
2022-09-15T19:39:38.609Z,73.34
2022-09-15T19:42:06.597Z,73.15
2022-09-15T19:44:33.646Z,73.08
2022-09-15T19:47:00.513Z,73.64
2022-09-15T19:49:27.326Z,74.02
2022-09-15T19:51:57.015Z,74.07
2022-09-15T19:54:26.300Z,74.39
2022-09-15T19:56:53.374Z,74.54
2022-09-15T19:59:20.524Z,74.38
2022-09-15T20:01:47.481Z,73.87
2022-09-15T20:04:14.791Z,73.43
2022-09-15T20:06:41.815Z,73.26
2022-09-15T20:09:09.375Z,73.74
2022-09-15T20:11:36.501Z,74.33
2022-09-15T20:14:03.470Z,74.75
2022-09-15T20:17:49.305Z,75.82
2022-09-15T20:20:16.212Z,75.31
2022-09-15T20:22:42.876Z,75.84
2022-09-15T20:25:09.487Z,75.80
2022-09-15T20:28:26.289Z,76.31
2022-09-15T20:31:03.874Z,75.25
2022-09-15T20:33:31.605Z,75.04
2022-09-15T20:36:06.593Z,75.73
2022-09-15T20:38:34.286Z,75.52
2022-09-15T20:41:01.422Z,75.37
2022-09-15T20:43:28.565Z,75.30
2022-09-15T20:46:00.208Z,75.67
2022-09-15T20:48:32.306Z,75.56
2022-09-15T20:51:06.422Z,76.17
2022-09-15T20:53:35.717Z,75.18
2022-09-15T20:56:02.955Z,75.55
2022-09-15T20:58:29.806Z,75.48
2022-09-15T21:01:06.511Z,76.10
2022-09-15T21:03:34.312Z,75.57
2022-09-15T21:06:06.717Z,76.01
2022-09-15T21:08:34.352Z,76.01
2022-09-15T21:11:01.812Z,75.81
2022-09-15T21:13:33.598Z,75.92
2022-09-15T21:16:02.104Z,75.91
2022-09-15T21:18:34.003Z,76.09
2022-09-15T21:21:09.472Z,75.94
2022-09-15T21:23:44.285Z,76.20
2022-09-15T21:26:15.840Z,75.95
2022-09-15T21:28:43.552Z,75.80
2022-09-15T21:31:15.284Z,75.68
2022-09-15T21:33:42.503Z,75.79
2022-09-15T21:36:11.700Z,75.56
2022-09-15T21:38:40.373Z,75.38
2022-09-15T21:41:09.302Z,75.48
2022-09-15T21:43:39.184Z,75.50
2022-09-15T21:46:08.409Z,75.71
2022-09-15T21:48:35.797Z,75.39
2022-09-15T21:51:04.063Z,75.49
2022-09-15T21:53:30.767Z,75.83
2022-09-15T21:56:00.849Z,75.97
2022-09-15T21:58:31.878Z,76.10
2022-09-15T22:00:58.674Z,76.33
2022-09-15T22:03:25.470Z,76.29
2022-09-15T22:05:52.170Z,76.35
2022-09-15T22:08:19.304Z,76.37
2022-09-15T22:10:46.118Z,76.48
2022-09-15T22:13:12.799Z,76.28
2022-09-15T22:15:39.456Z,76.47
2022-09-15T22:18:07.270Z,75.96
2022-09-15T22:20:33.961Z,76.02
2022-09-15T22:23:01.323Z,76.04
2022-09-15T22:25:28.922Z,76.29
2022-09-15T22:27:55.573Z,76.29
2022-09-15T22:30:22.260Z,76.36
2022-09-15T22:32:49.046Z,76.20
2022-09-15T22:35:17.438Z,76.25
2022-09-15T22:37:44.055Z,76.10
2022-09-15T22:40:11.052Z,76.06
2022-09-15T22:42:37.909Z,76.34
2022-09-15T22:45:05.107Z,76.68
2022-09-15T22:47:33.148Z,76.67
2022-09-15T22:49:59.768Z,76.08
2022-09-15T22:52:26.397Z,76.25
2022-09-15T22:54:53.058Z,76.46
2022-09-15T22:57:19.708Z,76.79
2022-09-15T22:59:46.595Z,76.82
2022-09-15T23:02:13.544Z,76.47
2022-09-15T23:04:40.316Z,76.77
2022-09-15T23:07:07.073Z,76.86
2022-09-15T23:09:34.188Z,77.08
2022-09-15T23:12:00.948Z,76.93
2022-09-15T23:14:27.645Z,77.03
2022-09-15T23:16:54.433Z,77.51
2022-09-15T23:19:21.295Z,77.29
2022-09-15T23:21:47.964Z,77.19
2022-09-15T23:24:14.954Z,77.26
2022-09-15T23:26:41.598Z,77.47
2022-09-15T23:29:08.209Z,77.49
2022-09-15T23:31:35.108Z,77.56
2022-09-15T23:34:02.099Z,77.39
2022-09-15T23:36:30.025Z,77.53
2022-09-15T23:38:56.762Z,77.56
2022-09-15T23:41:24.603Z,77.57
2022-09-15T23:43:51.245Z,77.62
2022-09-15T23:46:17.980Z,77.61
2022-09-15T23:48:44.755Z,77.53
2022-09-15T23:51:11.544Z,77.75
2022-09-15T23:53:38.384Z,77.71
2022-09-15T23:56:05.173Z,77.84
2022-09-15T23:58:31.828Z,78.21
